sensor_id;sensor_type;location;lat;lon;timestamp;temperature;humidity
23783;DHT22;12071;50.850;4.446;2022-09-06T00:01:33;18.60;83.50
23783;DHT22;12071;50.850;4.446;2022-09-06T00:03:58;18.60;83.70
23783;DHT22;12071;50.850;4.446;2022-09-06T00:06:24;18.60;84.50
23783;DHT22;12071;50.850;4.446;2022-09-06T00:08:49;18.60;83.10
23783;DHT22;12071;50.850;4.446;2022-09-06T00:11:16;18.60;80.40
23783;DHT22;12071;50.850;4.446;2022-09-06T00:13:42;18.80;78.90
23783;DHT22;12071;50.850;4.446;2022-09-06T00:16:11;18.90;71.90
23783;DHT22;12071;50.850;4.446;2022-09-06T00:18:37;18.90;63.90
23783;DHT22;12071;50.850;4.446;2022-09-06T00:21:11;18.70;67.40
23783;DHT22;12071;50.850;4.446;2022-09-06T00:23:37;18.60;72.50
23783;DHT22;12071;50.850;4.446;2022-09-06T00:26:03;18.70;70.10
23783;DHT22;12071;50.850;4.446;2022-09-06T00:28:29;19.00;63.40
23783;DHT22;12071;50.850;4.446;2022-09-06T00:30:55;18.80;62.50
23783;DHT22;12071;50.850;4.446;2022-09-06T00:33:21;18.70;68.50
23783;DHT22;12071;50.850;4.446;2022-09-06T00:35:46;18.50;71.80
23783;DHT22;12071;50.850;4.446;2022-09-06T00:38:13;18.50;74.00
23783;DHT22;12071;50.850;4.446;2022-09-06T00:40:39;18.40;72.30
23783;DHT22;12071;50.850;4.446;2022-09-06T00:43:04;18.50;69.80
23783;DHT22;12071;50.850;4.446;2022-09-06T00:45:30;18.40;71.80
23783;DHT22;12071;50.850;4.446;2022-09-06T00:47:57;18.40;73.60
23783;DHT22;12071;50.850;4.446;2022-09-06T00:50:24;18.30;69.60
23783;DHT22;12071;50.850;4.446;2022-09-06T00:52:51;18.50;68.40
23783;DHT22;12071;50.850;4.446;2022-09-06T00:55:18;18.40;71.30
23783;DHT22;12071;50.850;4.446;2022-09-06T00:57:44;18.50;67.10
23783;DHT22;12071;50.850;4.446;2022-09-06T01:00:11;18.60;63.40
23783;DHT22;12071;50.850;4.446;2022-09-06T01:02:36;18.50;63.20
23783;DHT22;12071;50.850;4.446;2022-09-06T01:05:03;18.30;66.80
23783;DHT22;12071;50.850;4.446;2022-09-06T01:10:29;18.10;77.20
23783;DHT22;12071;50.850;4.446;2022-09-06T01:13:03;18.00;80.70
23783;DHT22;12071;50.850;4.446;2022-09-06T01:15:44;17.80;81.00
23783;DHT22;12071;50.850;4.446;2022-09-06T01:18:18;17.80;84.50
23783;DHT22;12071;50.850;4.446;2022-09-06T01:21:06;17.90;83.40
23783;DHT22;12071;50.850;4.446;2022-09-06T01:26:54;18.10;80.90
23783;DHT22;12071;50.850;4.446;2022-09-06T01:32:29;18.20;75.70
23783;DHT22;12071;50.850;4.446;2022-09-06T01:37:41;18.10;76.60
23783;DHT22;12071;50.850;4.446;2022-09-06T01:40:08;18.00;76.90
23783;DHT22;12071;50.850;4.446;2022-09-06T01:42:34;18.10;80.20
23783;DHT22;12071;50.850;4.446;2022-09-06T01:45:08;18.10;77.60
23783;DHT22;12071;50.850;4.446;2022-09-06T01:50:56;18.20;67.40
23783;DHT22;12071;50.850;4.446;2022-09-06T02:06:45;17.70;84.50
23783;DHT22;12071;50.850;4.446;2022-09-06T02:09:14;17.80;85.10
23783;DHT22;12071;50.850;4.446;2022-09-06T02:11:48;17.80;81.60
23783;DHT22;12071;50.850;4.446;2022-09-06T02:14:20;17.70;86.40
23783;DHT22;12071;50.850;4.446;2022-09-06T02:16:49;17.60;88.20
23783;DHT22;12071;50.850;4.446;2022-09-06T02:19:28;17.60;89.20
23783;DHT22;12071;50.850;4.446;2022-09-06T02:21:56;17.90;90.20
23783;DHT22;12071;50.850;4.446;2022-09-06T02:24:29;18.00;78.40
23783;DHT22;12071;50.850;4.446;2022-09-06T02:26:56;18.10;75.00
23783;DHT22;12071;50.850;4.446;2022-09-06T02:29:22;18.00;77.40
23783;DHT22;12071;50.850;4.446;2022-09-06T02:34:43;17.90;78.30
23783;DHT22;12071;50.850;4.446;2022-09-06T02:37:11;18.10;80.10
23783;DHT22;12071;50.850;4.446;2022-09-06T02:39:37;18.10;74.00
23783;DHT22;12071;50.850;4.446;2022-09-06T02:42:04;18.20;72.50
23783;DHT22;12071;50.850;4.446;2022-09-06T02:44:30;18.10;72.20
23783;DHT22;12071;50.850;4.446;2022-09-06T02:46:57;18.10;73.50
23783;DHT22;12071;50.850;4.446;2022-09-06T02:49:22;18.20;70.40
23783;DHT22;12071;50.850;4.446;2022-09-06T02:51:48;18.00;71.20
23783;DHT22;12071;50.850;4.446;2022-09-06T02:54:14;18.00;76.20
23783;DHT22;12071;50.850;4.446;2022-09-06T02:56:39;17.90;78.50
23783;DHT22;12071;50.850;4.446;2022-09-06T02:59:05;17.70;82.60
23783;DHT22;12071;50.850;4.446;2022-09-06T03:01:31;17.70;84.10
23783;DHT22;12071;50.850;4.446;2022-09-06T03:03:57;17.70;88.40
23783;DHT22;12071;50.850;4.446;2022-09-06T03:06:23;17.60;88.40
23783;DHT22;12071;50.850;4.446;2022-09-06T03:08:48;17.80;86.60
23783;DHT22;12071;50.850;4.446;2022-09-06T03:11:14;17.90;82.10
23783;DHT22;12071;50.850;4.446;2022-09-06T03:13:40;18.20;74.20
23783;DHT22;12071;50.850;4.446;2022-09-06T03:16:05;18.30;68.60
23783;DHT22;12071;50.850;4.446;2022-09-06T03:18:31;18.20;70.40
23783;DHT22;12071;50.850;4.446;2022-09-06T03:20:57;18.00;73.50
23783;DHT22;12071;50.850;4.446;2022-09-06T03:23:25;18.00;73.50
23783;DHT22;12071;50.850;4.446;2022-09-06T03:25:51;18.00;76.80
23783;DHT22;12071;50.850;4.446;2022-09-06T03:28:16;18.20;73.50
23783;DHT22;12071;50.850;4.446;2022-09-06T03:30:48;18.30;70.00
23783;DHT22;12071;50.850;4.446;2022-09-06T03:33:14;18.20;69.50
23783;DHT22;12071;50.850;4.446;2022-09-06T03:35:49;18.30;69.40
23783;DHT22;12071;50.850;4.446;2022-09-06T03:38:15;18.00;71.50
23783;DHT22;12071;50.850;4.446;2022-09-06T03:40:44;18.00;71.80
23783;DHT22;12071;50.850;4.446;2022-09-06T03:43:09;17.90;75.70
23783;DHT22;12071;50.850;4.446;2022-09-06T03:45:35;17.80;78.50
23783;DHT22;12071;50.850;4.446;2022-09-06T03:48:01;17.70;84.10
23783;DHT22;12071;50.850;4.446;2022-09-06T03:50:26;17.70;82.90
23783;DHT22;12071;50.850;4.446;2022-09-06T03:52:52;17.60;85.90
23783;DHT22;12071;50.850;4.446;2022-09-06T03:55:17;17.80;87.00
23783;DHT22;12071;50.850;4.446;2022-09-06T03:57:43;17.60;86.40
23783;DHT22;12071;50.850;4.446;2022-09-06T04:00:09;17.50;89.80
23783;DHT22;12071;50.850;4.446;2022-09-06T04:02:35;17.40;90.00
23783;DHT22;12071;50.850;4.446;2022-09-06T04:05:00;17.50;90.10
23783;DHT22;12071;50.850;4.446;2022-09-06T04:07:26;17.60;86.80
23783;DHT22;12071;50.850;4.446;2022-09-06T04:09:51;17.60;85.80
23783;DHT22;12071;50.850;4.446;2022-09-06T04:12:17;17.50;86.80
23783;DHT22;12071;50.850;4.446;2022-09-06T04:14:42;17.40;90.20
23783;DHT22;12071;50.850;4.446;2022-09-06T04:17:08;17.60;86.30
23783;DHT22;12071;50.850;4.446;2022-09-06T04:19:34;17.70;83.00
23783;DHT22;12071;50.850;4.446;2022-09-06T04:21:59;17.70;80.00
23783;DHT22;12071;50.850;4.446;2022-09-06T04:24:25;17.70;83.90
23783;DHT22;12071;50.850;4.446;2022-09-06T04:26:50;17.80;81.00
23783;DHT22;12071;50.850;4.446;2022-09-06T04:29:16;17.80;76.40
23783;DHT22;12071;50.850;4.446;2022-09-06T04:31:41;17.40;85.30
23783;DHT22;12071;50.850;4.446;2022-09-06T04:34:07;17.30;90.40
23783;DHT22;12071;50.850;4.446;2022-09-06T04:36:32;17.20;91.00
23783;DHT22;12071;50.850;4.446;2022-09-06T04:38:58;17.50;91.10
23783;DHT22;12071;50.850;4.446;2022-09-06T04:41:23;17.60;89.20
23783;DHT22;12071;50.850;4.446;2022-09-06T04:43:49;17.40;90.40
23783;DHT22;12071;50.850;4.446;2022-09-06T04:46:24;17.50;91.30
23783;DHT22;12071;50.850;4.446;2022-09-06T04:48:51;17.40;91.50
23783;DHT22;12071;50.850;4.446;2022-09-06T04:51:17;17.60;90.40
23783;DHT22;12071;50.850;4.446;2022-09-06T04:53:44;17.60;90.40
23783;DHT22;12071;50.850;4.446;2022-09-06T04:56:15;17.50;88.00
23783;DHT22;12071;50.850;4.446;2022-09-06T04:58:42;17.50;90.10
23783;DHT22;12071;50.850;4.446;2022-09-06T05:01:07;17.50;91.50
23783;DHT22;12071;50.850;4.446;2022-09-06T05:03:33;17.40;91.80
23783;DHT22;12071;50.850;4.446;2022-09-06T05:08:30;17.20;94.10
23783;DHT22;12071;50.850;4.446;2022-09-06T05:10:56;17.20;94.80
23783;DHT22;12071;50.850;4.446;2022-09-06T05:13:21;17.50;94.70
23783;DHT22;12071;50.850;4.446;2022-09-06T05:15:47;17.50;93.10
23783;DHT22;12071;50.850;4.446;2022-09-06T05:18:12;17.50;92.20
23783;DHT22;12071;50.850;4.446;2022-09-06T05:20:38;17.50;92.50
23783;DHT22;12071;50.850;4.446;2022-09-06T05:23:04;17.50;92.90
23783;DHT22;12071;50.850;4.446;2022-09-06T05:25:30;17.50;93.20
23783;DHT22;12071;50.850;4.446;2022-09-06T05:27:56;17.30;94.10
23783;DHT22;12071;50.850;4.446;2022-09-06T05:30:21;17.30;95.00
23783;DHT22;12071;50.850;4.446;2022-09-06T05:32:47;17.30;95.80
23783;DHT22;12071;50.850;4.446;2022-09-06T05:35:13;17.30;96.20
23783;DHT22;12071;50.850;4.446;2022-09-06T05:37:39;17.50;96.20
23783;DHT22;12071;50.850;4.446;2022-09-06T05:40:04;17.60;95.20
23783;DHT22;12071;50.850;4.446;2022-09-06T05:42:30;17.70;92.70
23783;DHT22;12071;50.850;4.446;2022-09-06T05:44:56;17.60;91.40
23783;DHT22;12071;50.850;4.446;2022-09-06T05:47:21;17.40;93.60
23783;DHT22;12071;50.850;4.446;2022-09-06T05:49:47;17.60;95.10
23783;DHT22;12071;50.850;4.446;2022-09-06T05:52:12;17.50;94.10
23783;DHT22;12071;50.850;4.446;2022-09-06T05:54:38;17.50;94.30
23783;DHT22;12071;50.850;4.446;2022-09-06T05:57:03;17.60;94.10
23783;DHT22;12071;50.850;4.446;2022-09-06T05:59:29;17.50;94.30
23783;DHT22;12071;50.850;4.446;2022-09-06T06:01:55;17.70;95.40
23783;DHT22;12071;50.850;4.446;2022-09-06T06:04:21;17.60;94.50
23783;DHT22;12071;50.850;4.446;2022-09-06T06:06:46;17.60;95.10
23783;DHT22;12071;50.850;4.446;2022-09-06T06:09:13;17.80;94.40
23783;DHT22;12071;50.850;4.446;2022-09-06T06:11:39;18.10;90.70
23783;DHT22;12071;50.850;4.446;2022-09-06T06:14:05;18.10;86.20
23783;DHT22;12071;50.850;4.446;2022-09-06T06:16:31;18.20;87.90
23783;DHT22;12071;50.850;4.446;2022-09-06T06:18:57;18.20;85.90
23783;DHT22;12071;50.850;4.446;2022-09-06T06:21:25;18.40;81.80
23783;DHT22;12071;50.850;4.446;2022-09-06T06:23:56;18.20;81.20
23783;DHT22;12071;50.850;4.446;2022-09-06T06:26:22;18.10;86.70
23783;DHT22;12071;50.850;4.446;2022-09-06T06:28:49;18.10;86.10
23783;DHT22;12071;50.850;4.446;2022-09-06T06:31:14;18.10;85.50
23783;DHT22;12071;50.850;4.446;2022-09-06T06:33:40;18.00;86.40
23783;DHT22;12071;50.850;4.446;2022-09-06T06:38:45;18.20;91.10
23783;DHT22;12071;50.850;4.446;2022-09-06T06:41:16;18.50;82.90
23783;DHT22;12071;50.850;4.446;2022-09-06T06:43:41;18.50;80.20
23783;DHT22;12071;50.850;4.446;2022-09-06T06:46:09;18.70;75.50
23783;DHT22;12071;50.850;4.446;2022-09-06T06:48:36;18.80;72.50
23783;DHT22;12071;50.850;4.446;2022-09-06T06:51:02;18.90;65.00
23783;DHT22;12071;50.850;4.446;2022-09-06T06:53:28;19.00;63.70
23783;DHT22;12071;50.850;4.446;2022-09-06T06:55:53;19.30;57.30
23783;DHT22;12071;50.850;4.446;2022-09-06T06:58:19;19.20;55.60
23783;DHT22;12071;50.850;4.446;2022-09-06T07:00:45;19.10;56.30
23783;DHT22;12071;50.850;4.446;2022-09-06T07:03:11;19.00;66.10
23783;DHT22;12071;50.850;4.446;2022-09-06T07:05:38;19.00;68.10
23783;DHT22;12071;50.850;4.446;2022-09-06T07:08:05;19.10;58.90
23783;DHT22;12071;50.850;4.446;2022-09-06T07:10:31;19.10;63.50
23783;DHT22;12071;50.850;4.446;2022-09-06T07:12:57;19.30;59.20
23783;DHT22;12071;50.850;4.446;2022-09-06T07:15:23;19.30;59.00
23783;DHT22;12071;50.850;4.446;2022-09-06T07:17:49;19.50;56.70
23783;DHT22;12071;50.850;4.446;2022-09-06T07:20:15;19.40;55.00
23783;DHT22;12071;50.850;4.446;2022-09-06T07:22:40;19.40;55.70
23783;DHT22;12071;50.850;4.446;2022-09-06T07:25:07;19.50;51.10
23783;DHT22;12071;50.850;4.446;2022-09-06T07:27:33;19.40;54.70
23783;DHT22;12071;50.850;4.446;2022-09-06T07:29:59;19.50;52.20
23783;DHT22;12071;50.850;4.446;2022-09-06T07:32:24;19.70;50.10
23783;DHT22;12071;50.850;4.446;2022-09-06T07:34:50;19.90;45.10
23783;DHT22;12071;50.850;4.446;2022-09-06T07:37:15;20.00;38.60
23783;DHT22;12071;50.850;4.446;2022-09-06T07:39:41;20.00;32.20
23783;DHT22;12071;50.850;4.446;2022-09-06T07:42:07;20.10;31.60
23783;DHT22;12071;50.850;4.446;2022-09-06T07:44:32;20.20;28.60
23783;DHT22;12071;50.850;4.446;2022-09-06T07:46:58;20.30;22.60
23783;DHT22;12071;50.850;4.446;2022-09-06T07:49:27;20.30;28.30
23783;DHT22;12071;50.850;4.446;2022-09-06T07:51:53;20.40;21.60
23783;DHT22;12071;50.850;4.446;2022-09-06T07:54:19;20.40;18.70
23783;DHT22;12071;50.850;4.446;2022-09-06T07:56:44;20.30;20.90
23783;DHT22;12071;50.850;4.446;2022-09-06T07:59:11;20.20;30.90
23783;DHT22;12071;50.850;4.446;2022-09-06T08:01:37;20.40;20.10
23783;DHT22;12071;50.850;4.446;2022-09-06T08:04:11;20.50;22.40
23783;DHT22;12071;50.850;4.446;2022-09-06T08:06:39;20.40;18.60
23783;DHT22;12071;50.850;4.446;2022-09-06T08:09:07;20.50;19.40
23783;DHT22;12071;50.850;4.446;2022-09-06T08:11:34;20.60;21.70
23783;DHT22;12071;50.850;4.446;2022-09-06T08:14:02;20.80;14.00
23783;DHT22;12071;50.850;4.446;2022-09-06T08:16:29;20.70;17.50
23783;DHT22;12071;50.850;4.446;2022-09-06T08:18:59;20.80;10.60
23783;DHT22;12071;50.850;4.446;2022-09-06T08:21:27;20.90;9.30
23783;DHT22;12071;50.850;4.446;2022-09-06T08:23:55;20.80;10.20
23783;DHT22;12071;50.850;4.446;2022-09-06T08:26:23;21.00;7.70
23783;DHT22;12071;50.850;4.446;2022-09-06T08:29:10;21.00;7.60
23783;DHT22;12071;50.850;4.446;2022-09-06T08:31:41;21.10;6.40
23783;DHT22;12071;50.850;4.446;2022-09-06T08:34:07;21.20;7.10
23783;DHT22;12071;50.850;4.446;2022-09-06T08:36:33;21.30;1.00
23783;DHT22;12071;50.850;4.446;2022-09-06T08:39:01;21.30;1.00
23783;DHT22;12071;50.850;4.446;2022-09-06T08:47:06;21.70;1.00
23783;DHT22;12071;50.850;4.446;2022-09-06T08:49:43;21.70;1.00
23783;DHT22;12071;50.850;4.446;2022-09-06T08:52:46;21.70;1.00
23783;DHT22;12071;50.850;4.446;2022-09-06T08:55:49;21.80;1.00
23783;DHT22;12071;50.850;4.446;2022-09-06T08:58:38;21.90;1.00
23783;DHT22;12071;50.850;4.446;2022-09-06T09:01:16;22.00;1.00
23783;DHT22;12071;50.850;4.446;2022-09-06T09:03:43;22.10;1.00
23783;DHT22;12071;50.850;4.446;2022-09-06T09:06:10;22.10;1.00
23783;DHT22;12071;50.850;4.446;2022-09-06T09:08:43;22.10;1.00
23783;DHT22;12071;50.850;4.446;2022-09-06T09:11:19;22.30;1.00
23783;DHT22;12071;50.850;4.446;2022-09-06T09:16:13;22.50;1.00
23783;DHT22;12071;50.850;4.446;2022-09-06T09:18:41;22.80;1.00
23783;DHT22;12071;50.850;4.446;2022-09-06T09:21:09;22.80;1.00
23783;DHT22;12071;50.850;4.446;2022-09-06T09:23:35;23.10;1.00
23783;DHT22;12071;50.850;4.446;2022-09-06T09:26:03;23.10;1.00
23783;DHT22;12071;50.850;4.446;2022-09-06T09:28:30;23.10;1.00
23783;DHT22;12071;50.850;4.446;2022-09-06T09:30:56;23.00;1.00
23783;DHT22;12071;50.850;4.446;2022-09-06T09:33:26;22.90;1.00
23783;DHT22;12071;50.850;4.446;2022-09-06T09:35:53;22.90;1.00
23783;DHT22;12071;50.850;4.446;2022-09-06T09:40:55;23.10;1.00
23783;DHT22;12071;50.850;4.446;2022-09-06T09:43:30;23.30;1.00
23783;DHT22;12071;50.850;4.446;2022-09-06T09:46:26;23.20;1.00
23783;DHT22;12071;50.850;4.446;2022-09-06T09:49:08;23.20;1.00
23783;DHT22;12071;50.850;4.446;2022-09-06T09:51:41;23.20;1.00
23783;DHT22;12071;50.850;4.446;2022-09-06T09:54:10;23.40;1.00
23783;DHT22;12071;50.850;4.446;2022-09-06T09:56:37;23.50;1.00
23783;DHT22;12071;50.850;4.446;2022-09-06T10:01:46;23.80;1.00
23783;DHT22;12071;50.850;4.446;2022-09-06T10:04:27;23.90;1.00
23783;DHT22;12071;50.850;4.446;2022-09-06T10:07:15;24.00;1.00
23783;DHT22;12071;50.850;4.446;2022-09-06T10:09:44;24.00;1.00
23783;DHT22;12071;50.850;4.446;2022-09-06T10:12:37;24.00;1.00
23783;DHT22;12071;50.850;4.446;2022-09-06T10:15:04;23.90;1.00
23783;DHT22;12071;50.850;4.446;2022-09-06T10:17:33;23.80;1.00
23783;DHT22;12071;50.850;4.446;2022-09-06T10:20:10;24.00;1.00
23783;DHT22;12071;50.850;4.446;2022-09-06T10:22:46;24.20;1.00
23783;DHT22;12071;50.850;4.446;2022-09-06T10:25:29;24.50;1.00
23783;DHT22;12071;50.850;4.446;2022-09-06T10:31:00;24.80;99.90
23783;DHT22;12071;50.850;4.446;2022-09-06T10:36:07;24.80;99.90
23783;DHT22;12071;50.850;4.446;2022-09-06T10:41:39;24.50;99.90
23783;DHT22;12071;50.850;4.446;2022-09-06T10:44:28;24.50;99.90
23783;DHT22;12071;50.850;4.446;2022-09-06T10:47:09;24.70;99.90
23783;DHT22;12071;50.850;4.446;2022-09-06T10:49:36;24.80;99.90
23783;DHT22;12071;50.850;4.446;2022-09-06T10:52:06;24.90;99.90
23783;DHT22;12071;50.850;4.446;2022-09-06T10:54:35;24.90;99.90
23783;DHT22;12071;50.850;4.446;2022-09-06T10:57:18;25.20;99.90
23783;DHT22;12071;50.850;4.446;2022-09-06T10:59:50;25.10;99.90
23783;DHT22;12071;50.850;4.446;2022-09-06T11:04:59;25.80;99.90
23783;DHT22;12071;50.850;4.446;2022-09-06T11:07:31;25.70;99.90
23783;DHT22;12071;50.850;4.446;2022-09-06T11:10:31;25.90;99.90
23783;DHT22;12071;50.850;4.446;2022-09-06T11:15:54;26.10;93.00
23783;DHT22;12071;50.850;4.446;2022-09-06T11:18:45;25.90;19.00
23783;DHT22;12071;50.850;4.446;2022-09-06T11:23:53;26.00;23.90
23783;DHT22;12071;50.850;4.446;2022-09-06T11:26:30;26.10;91.50
23783;DHT22;12071;50.850;4.446;2022-09-06T11:28:57;26.10;98.30
23783;DHT22;12071;50.850;4.446;2022-09-06T11:31:30;26.30;79.20
23783;DHT22;12071;50.850;4.446;2022-09-06T11:34:09;26.40;1.00
23783;DHT22;12071;50.850;4.446;2022-09-06T11:36:46;26.30;1.00
23783;DHT22;12071;50.850;4.446;2022-09-06T11:39:12;26.60;1.00
23783;DHT22;12071;50.850;4.446;2022-09-06T11:41:41;26.40;1.00
23783;DHT22;12071;50.850;4.446;2022-09-06T11:44:09;26.60;1.00
23783;DHT22;12071;50.850;4.446;2022-09-06T11:49:08;26.70;1.00
23783;DHT22;12071;50.850;4.446;2022-09-06T11:51:52;26.90;1.00
23783;DHT22;12071;50.850;4.446;2022-09-06T12:07:27;27.70;99.90
23783;DHT22;12071;50.850;4.446;2022-09-06T12:09:53;27.60;99.90
23783;DHT22;12071;50.850;4.446;2022-09-06T12:12:42;27.50;99.90
23783;DHT22;12071;50.850;4.446;2022-09-06T12:15:44;27.50;99.90
23783;DHT22;12071;50.850;4.446;2022-09-06T12:21:08;28.00;99.90
23783;DHT22;12071;50.850;4.446;2022-09-06T12:26:07;28.50;22.60
23783;DHT22;12071;50.850;4.446;2022-09-06T12:28:48;28.60;1.00
23783;DHT22;12071;50.850;4.446;2022-09-06T12:33:49;28.40;99.90
23783;DHT22;12071;50.850;4.446;2022-09-06T12:36:17;28.10;99.90
23783;DHT22;12071;50.850;4.446;2022-09-06T12:38:54;28.20;99.90
23783;DHT22;12071;50.850;4.446;2022-09-06T12:41:20;28.90;27.70
23783;DHT22;12071;50.850;4.446;2022-09-06T12:43:47;29.30;99.90
23783;DHT22;12071;50.850;4.446;2022-09-06T12:46:14;29.00;99.90
23783;DHT22;12071;50.850;4.446;2022-09-06T12:48:39;28.70;1.00
23783;DHT22;12071;50.850;4.446;2022-09-06T12:51:11;29.30;99.90
23783;DHT22;12071;50.850;4.446;2022-09-06T12:53:53;29.80;1.00
23783;DHT22;12071;50.850;4.446;2022-09-06T12:56:22;29.90;99.90
23783;DHT22;12071;50.850;4.446;2022-09-06T12:58:47;30.00;1.00
23783;DHT22;12071;50.850;4.446;2022-09-06T13:06:41;29.30;99.90
23783;DHT22;12071;50.850;4.446;2022-09-06T13:09:13;29.80;17.90
23783;DHT22;12071;50.850;4.446;2022-09-06T13:11:44;29.90;99.90
23783;DHT22;12071;50.850;4.446;2022-09-06T13:14:25;29.70;10.00
23783;DHT22;12071;50.850;4.446;2022-09-06T13:16:53;29.40;99.90
23783;DHT22;12071;50.850;4.446;2022-09-06T13:21:56;29.50;99.90
23783;DHT22;12071;50.850;4.446;2022-09-06T13:27:24;29.20;99.90
23783;DHT22;12071;50.850;4.446;2022-09-06T13:30:40;29.10;1.00
23783;DHT22;12071;50.850;4.446;2022-09-06T13:32:46;29.80;41.00
23783;DHT22;12071;50.850;4.446;2022-09-06T13:35:25;30.20;1.00
23783;DHT22;12071;50.850;4.446;2022-09-06T13:37:51;30.80;1.00
23783;DHT22;12071;50.850;4.446;2022-09-06T13:40:47;31.30;43.30
23783;DHT22;12071;50.850;4.446;2022-09-06T13:43:13;31.00;1.00
23783;DHT22;12071;50.850;4.446;2022-09-06T13:45:39;31.00;1.00
23783;DHT22;12071;50.850;4.446;2022-09-06T13:48:05;32.30;99.90
23783;DHT22;12071;50.850;4.446;2022-09-06T13:50:31;34.10;99.90
23783;DHT22;12071;50.850;4.446;2022-09-06T13:52:57;34.10;99.90
23783;DHT22;12071;50.850;4.446;2022-09-06T13:55:27;35.00;17.40
23783;DHT22;12071;50.850;4.446;2022-09-06T13:57:54;34.90;1.00
23783;DHT22;12071;50.850;4.446;2022-09-06T14:00:20;35.20;1.00
23783;DHT22;12071;50.850;4.446;2022-09-06T14:02:47;35.80;1.00
23783;DHT22;12071;50.850;4.446;2022-09-06T14:05:13;36.00;99.90
23783;DHT22;12071;50.850;4.446;2022-09-06T14:07:40;35.70;99.90
23783;DHT22;12071;50.850;4.446;2022-09-06T14:10:06;34.40;1.00
23783;DHT22;12071;50.850;4.446;2022-09-06T14:12:31;32.90;99.90
23783;DHT22;12071;50.850;4.446;2022-09-06T14:14:59;32.30;1.00
23783;DHT22;12071;50.850;4.446;2022-09-06T14:17:24;33.70;99.90
23783;DHT22;12071;50.850;4.446;2022-09-06T14:19:50;34.00;1.00
23783;DHT22;12071;50.850;4.446;2022-09-06T14:22:15;35.10;1.00
23783;DHT22;12071;50.850;4.446;2022-09-06T14:24:41;35.60;1.00
23783;DHT22;12071;50.850;4.446;2022-09-06T14:27:07;35.20;1.00
23783;DHT22;12071;50.850;4.446;2022-09-06T14:29:33;34.30;81.70
23783;DHT22;12071;50.850;4.446;2022-09-06T14:32:00;33.90;99.90
23783;DHT22;12071;50.850;4.446;2022-09-06T14:34:26;32.70;99.90
23783;DHT22;12071;50.850;4.446;2022-09-06T14:36:52;32.30;99.90
23783;DHT22;12071;50.850;4.446;2022-09-06T14:39:17;32.30;99.90
23783;DHT22;12071;50.850;4.446;2022-09-06T14:41:43;32.10;56.60
23783;DHT22;12071;50.850;4.446;2022-09-06T14:44:09;32.00;1.00
23783;DHT22;12071;50.850;4.446;2022-09-06T14:46:35;31.50;99.90
23783;DHT22;12071;50.850;4.446;2022-09-06T14:49:06;31.20;1.00
23783;DHT22;12071;50.850;4.446;2022-09-06T14:51:33;31.00;1.00
23783;DHT22;12071;50.850;4.446;2022-09-06T14:54:07;30.80;1.10
23783;DHT22;12071;50.850;4.446;2022-09-06T14:56:34;30.70;99.90
23783;DHT22;12071;50.850;4.446;2022-09-06T14:58:59;30.60;99.90
23783;DHT22;12071;50.850;4.446;2022-09-06T15:01:27;30.30;99.90
23783;DHT22;12071;50.850;4.446;2022-09-06T15:03:55;30.10;99.90
23783;DHT22;12071;50.850;4.446;2022-09-06T15:06:22;30.20;99.90
23783;DHT22;12071;50.850;4.446;2022-09-06T15:08:49;30.10;99.90
23783;DHT22;12071;50.850;4.446;2022-09-06T15:11:39;29.90;99.90
23783;DHT22;12071;50.850;4.446;2022-09-06T15:14:28;29.90;99.90
23783;DHT22;12071;50.850;4.446;2022-09-06T15:16:57;29.90;1.00
23783;DHT22;12071;50.850;4.446;2022-09-06T15:19:26;29.60;99.90
23783;DHT22;12071;50.850;4.446;2022-09-06T15:21:53;29.20;1.00
23783;DHT22;12071;50.850;4.446;2022-09-06T15:24:19;29.10;1.00
23783;DHT22;12071;50.850;4.446;2022-09-06T15:26:45;29.20;99.90
23783;DHT22;12071;50.850;4.446;2022-09-06T15:29:12;29.10;1.00
23783;DHT22;12071;50.850;4.446;2022-09-06T15:31:39;28.90;21.30
23783;DHT22;12071;50.850;4.446;2022-09-06T15:34:05;28.60;99.90
23783;DHT22;12071;50.850;4.446;2022-09-06T15:36:32;28.50;99.90
23783;DHT22;12071;50.850;4.446;2022-09-06T15:38:59;28.40;1.00
23783;DHT22;12071;50.850;4.446;2022-09-06T15:41:29;28.30;1.00
23783;DHT22;12071;50.850;4.446;2022-09-06T15:43:59;28.30;9.80
23783;DHT22;12071;50.850;4.446;2022-09-06T15:48:59;28.00;99.90
23783;DHT22;12071;50.850;4.446;2022-09-06T15:51:25;27.80;99.90
23783;DHT22;12071;50.850;4.446;2022-09-06T15:53:51;27.80;99.90
23783;DHT22;12071;50.850;4.446;2022-09-06T15:56:17;27.80;1.00
23783;DHT22;12071;50.850;4.446;2022-09-06T15:58:43;28.00;1.00
23783;DHT22;12071;50.850;4.446;2022-09-06T16:01:17;28.10;1.00
23783;DHT22;12071;50.850;4.446;2022-09-06T16:06:13;28.20;99.90
23783;DHT22;12071;50.850;4.446;2022-09-06T16:08:38;28.50;99.90
23783;DHT22;12071;50.850;4.446;2022-09-06T16:11:09;28.80;99.90
23783;DHT22;12071;50.850;4.446;2022-09-06T16:13:36;29.00;3.20
23783;DHT22;12071;50.850;4.446;2022-09-06T16:16:04;29.20;99.90
23783;DHT22;12071;50.850;4.446;2022-09-06T16:18:31;29.30;1.00
23783;DHT22;12071;50.850;4.446;2022-09-06T16:21:02;29.60;99.90
23783;DHT22;12071;50.850;4.446;2022-09-06T16:23:27;29.50;99.90
23783;DHT22;12071;50.850;4.446;2022-09-06T16:25:53;29.50;99.90
23783;DHT22;12071;50.850;4.446;2022-09-06T16:28:19;29.60;99.90
23783;DHT22;12071;50.850;4.446;2022-09-06T16:30:45;29.80;99.90
23783;DHT22;12071;50.850;4.446;2022-09-06T16:33:11;29.60;1.00
23783;DHT22;12071;50.850;4.446;2022-09-06T16:35:41;29.90;99.90
23783;DHT22;12071;50.850;4.446;2022-09-06T16:38:07;31.40;1.00
23783;DHT22;12071;50.850;4.446;2022-09-06T16:40:41;33.30;99.90
23783;DHT22;12071;50.850;4.446;2022-09-06T16:43:07;34.30;99.90
23783;DHT22;12071;50.850;4.446;2022-09-06T16:45:33;34.20;1.00
23783;DHT22;12071;50.850;4.446;2022-09-06T16:47:58;34.80;1.00
23783;DHT22;12071;50.850;4.446;2022-09-06T16:50:24;34.60;99.90
23783;DHT22;12071;50.850;4.446;2022-09-06T16:52:50;34.40;99.90
23783;DHT22;12071;50.850;4.446;2022-09-06T16:55:17;34.50;99.90
23783;DHT22;12071;50.850;4.446;2022-09-06T16:57:42;34.20;88.80
23783;DHT22;12071;50.850;4.446;2022-09-06T17:00:08;33.90;5.90
23783;DHT22;12071;50.850;4.446;2022-09-06T17:02:35;33.00;99.90
23783;DHT22;12071;50.850;4.446;2022-09-06T17:05:01;32.50;1.00
23783;DHT22;12071;50.850;4.446;2022-09-06T17:07:27;31.80;99.90
23783;DHT22;12071;50.850;4.446;2022-09-06T17:09:53;31.10;41.00
23783;DHT22;12071;50.850;4.446;2022-09-06T17:12:18;30.70;1.00
23783;DHT22;12071;50.850;4.446;2022-09-06T17:14:44;30.20;99.90
23783;DHT22;12071;50.850;4.446;2022-09-06T17:17:09;29.80;99.90
23783;DHT22;12071;50.850;4.446;2022-09-06T17:19:36;29.50;99.90
23783;DHT22;12071;50.850;4.446;2022-09-06T17:22:03;29.30;45.20
23783;DHT22;12071;50.850;4.446;2022-09-06T17:24:30;29.10;99.90
23783;DHT22;12071;50.850;4.446;2022-09-06T17:26:56;28.80;99.90
23783;DHT22;12071;50.850;4.446;2022-09-06T17:29:21;28.50;1.00
23783;DHT22;12071;50.850;4.446;2022-09-06T17:31:50;28.30;1.00